Time;durP1;ratioP1;P1;durP2;ratioP2;P2;SDS_P1;SDS_P2;PMS_P1;PMS_P2;Temp;Humidity;BMP_temperature;BMP_pressure;BME280_temperature;BME280_humidity;BME280_pressure;Samples;Min_cycle;Max_cycle;Signal;HPM_P1;HPM_P2
2021/01/29 00:01:25;;;;;;;2.53;0.60;;;;;;;26.62;36.80;97134.91;4992725;28;20211;-58
2021/01/29 00:03:51;;;;;;;1.65;0.32;;;;;;;26.60;36.93;97126.28;4992217;28;20693;-55
2021/01/29 00:06:17;;;;;;;0.90;0.50;;;;;;;26.62;36.19;97126.88;4992820;28;20205;-56
2021/01/29 00:08:43;;;;;;;1.65;0.50;;;;;;;26.64;36.72;97116.78;4992262;28;20209;-57
2021/01/29 00:11:09;;;;;;;0.40;0.40;;;;;;;26.57;36.37;97116.78;4992615;28;20569;-55
2021/01/29 00:13:35;;;;;;;2.00;0.40;;;;;;;26.64;36.66;97102.56;4991538;28;20227;-55
2021/01/29 00:16:01;;;;;;;1.42;0.47;;;;;;;26.65;36.65;97106.88;4992512;28;20663;-54
2021/01/29 00:18:29;;;;;;;3.28;0.60;;;;;;;26.63;36.00;97103.56;4992374;28;20212;-54
2021/01/29 00:20:55;;;;;;;1.40;0.40;;;;;;;26.63;36.18;97099.06;4992169;28;20209;-58
2021/01/29 00:23:21;;;;;;;1.00;0.50;;;;;;;26.55;36.28;97075.19;4992102;28;20226;-56
2021/01/29 00:25:51;;;;;;;0.47;0.40;;;;;;;26.46;37.04;97077.31;4992598;28;20244;-56
2021/01/29 00:28:19;;;;;;;0.55;0.40;;;;;;;26.46;36.92;97071.94;4993580;28;20275;-56
2021/01/29 00:30:45;;;;;;;1.48;0.60;;;;;;;26.49;36.52;97066.16;4992706;28;20234;-58
2021/01/29 00:33:14;;;;;;;0.57;0.50;;;;;;;26.48;36.60;97066.38;4992756;28;20271;-59
2021/01/29 00:35:42;;;;;;;2.30;0.60;;;;;;;26.34;36.46;97057.63;4992278;28;20216;-58
2021/01/29 00:38:08;;;;;;;0.80;0.22;;;;;;;26.31;37.18;97050.03;4992333;28;20212;-57
2021/01/29 00:40:35;;;;;;;0.90;0.30;;;;;;;26.31;36.61;97058.06;4992289;28;20209;-57
2021/01/29 00:43:01;;;;;;;0.52;0.40;;;;;;;26.26;37.15;97065.94;4991258;28;20283;-57
2021/01/29 00:45:30;;;;;;;0.47;0.45;;;;;;;26.17;36.99;97063.53;4991750;28;20202;-58
2021/01/29 00:47:57;;;;;;;1.45;0.52;;;;;;;26.19;37.04;97063.31;4993345;28;20217;-55
2021/01/29 00:50:24;;;;;;;3.40;0.57;;;;;;;26.22;36.62;97066.38;4992620;28;20225;-55
2021/01/29 00:52:51;;;;;;;0.95;0.30;;;;;;;26.23;36.89;97061.84;4992465;28;20230;-56
2021/01/29 00:55:18;;;;;;;0.70;0.40;;;;;;;26.21;36.94;97054.03;4992270;28;20689;-56
2021/01/29 00:57:44;;;;;;;0.30;0.30;;;;;;;26.20;36.45;97041.66;4992822;28;20300;-57
2021/01/29 01:00:13;;;;;;;0.57;0.40;;;;;;;26.26;37.27;97039.97;4992127;28;20608;-57
2021/01/29 01:02:39;;;;;;;0.95;0.50;;;;;;;26.22;37.13;97034.22;4991545;28;20236;-54
2021/01/29 01:05:07;;;;;;;0.32;0.32;;;;;;;26.16;36.57;97029.75;4991550;28;20208;-57
2021/01/29 01:07:33;;;;;;;2.80;0.50;;;;;;;26.20;36.65;97020.25;4992590;28;20205;-58
2021/01/29 01:10:00;;;;;;;1.50;0.30;;;;;;;26.10;36.79;97019.91;4992039;28;20316;-57
2021/01/29 01:12:26;;;;;;;0.95;0.57;;;;;;;26.10;37.76;97013.75;4991513;28;20230;-59
2021/01/29 01:14:53;;;;;;;2.15;0.55;;;;;;;26.05;37.52;97006.38;4991292;28;20699;-58
2021/01/29 01:17:19;;;;;;;0.90;0.55;;;;;;;26.17;36.83;97001.91;4991243;28;20206;-55
2021/01/29 01:19:46;;;;;;;1.13;0.45;;;;;;;26.14;36.65;96998.88;4991407;28;20240;-53
2021/01/29 01:22:12;;;;;;;0.35;0.35;;;;;;;26.11;37.16;96992.06;4991773;28;20339;-57
2021/01/29 01:24:39;;;;;;;0.88;0.40;;;;;;;26.08;37.67;96989.03;4990873;28;20923;-55
2021/01/29 01:27:08;;;;;;;0.50;0.40;;;;;;;26.09;37.01;96975.41;4992265;28;20623;-56
2021/01/29 01:29:34;;;;;;;0.43;0.28;;;;;;;26.10;36.69;96976.25;4991314;28;20235;-54
2021/01/29 01:32:01;;;;;;;0.40;0.40;;;;;;;26.06;36.84;96975.84;4990884;28;20708;-56
2021/01/29 01:34:27;;;;;;;0.57;0.40;;;;;;;26.02;37.51;96964.75;4991486;28;20322;-55
2021/01/29 01:36:53;;;;;;;1.30;0.57;;;;;;;25.96;37.49;96948.75;4990770;28;20292;-56
2021/01/29 01:39:19;;;;;;;1.00;0.32;;;;;;;25.92;37.10;96952.88;4991110;28;20724;-57
2021/01/29 01:41:45;;;;;;;0.95;0.40;;;;;;;25.92;37.65;96937.63;4991044;28;20759;-56
2021/01/29 01:44:27;;;;;;;0.40;0.30;;;;;;;25.85;37.52;96937.69;4991056;28;20262;-54
2021/01/29 01:46:55;;;;;;;0.77;0.30;;;;;;;25.82;37.34;96923.94;4991790;28;20202;-57
2021/01/29 01:49:24;;;;;;;0.95;0.50;;;;;;;25.78;37.16;96926.22;4991329;28;20248;-56
2021/01/29 01:51:55;;;;;;;3.42;0.45;;;;;;;25.81;37.50;96925.78;4992378;28;20647;-55
2021/01/29 01:54:30;;;;;;;0.43;0.38;;;;;;;25.78;37.08;96920.03;4992814;28;20227;-56
2021/01/29 01:56:59;;;;;;;1.42;0.50;;;;;;;25.87;37.70;96915.25;4991960;28;20232;-58
2021/01/29 01:59:32;;;;;;;0.40;0.40;;;;;;;25.85;36.80;96908.25;4991432;28;20205;-58
2021/01/29 02:01:59;;;;;;;0.63;0.45;;;;;;;25.76;37.25;96912.22;4991139;28;20229;-57
2021/01/29 02:04:27;;;;;;;0.45;0.30;;;;;;;25.83;37.78;96896.94;4990063;28;20285;-54
2021/01/29 02:07:00;;;;;;;0.40;0.40;;;;;;;25.84;37.21;96893.22;4991323;28;20216;-57
2021/01/29 02:09:27;;;;;;;0.93;0.50;;;;;;;25.81;37.00;96888.31;4992003;28;20244;-57
2021/01/29 02:11:54;;;;;;;1.02;0.40;;;;;;;25.92;36.93;96878.72;4990735;28;20221;-57
2021/01/29 02:14:20;;;;;;;2.72;0.47;;;;;;;25.91;36.81;96882.44;4990863;28;20723;-58
2021/01/29 02:16:53;;;;;;;0.57;0.40;;;;;;;25.95;36.63;96875.66;4991831;28;20211;-55
2021/01/29 02:19:56;;;;;;;0.60;0.47;;;;;;;25.92;36.82;96883.28;4991521;28;20292;-57
2021/01/29 02:23:00;;;;;;;0.52;0.40;;;;;;;25.93;36.94;96860.78;4984026;28;20229;-56
2021/01/29 02:26:16;;;;;;;0.40;0.35;;;;;;;25.93;37.46;96858.13;4991564;28;20228;-59
2021/01/29 02:29:05;;;;;;;1.33;0.50;;;;;;;25.91;36.82;96852.97;4991566;28;20205;-56
2021/01/29 02:31:47;;;;;;;0.40;0.40;;;;;;;25.92;37.18;96857.31;4967847;28;20205;-56
2021/01/29 02:34:52;;;;;;;0.40;0.40;;;;;;;25.93;37.52;96858.13;4991562;28;20224;-56
2021/01/29 02:38:00;;;;;;;5.47;0.45;;;;;;;25.89;36.86;96841.69;4974884;28;20233;-57
2021/01/29 02:40:32;;;;;;;0.73;0.40;;;;;;;25.88;37.58;96831.19;4991715;28;20300;-59
2021/01/29 02:43:10;;;;;;;0.28;0.20;;;;;;;25.89;36.85;96819.47;4990696;28;20316;-58
2021/01/29 02:45:43;;;;;;;0.68;0.40;;;;;;;25.85;37.46;96819.91;4992095;28;20661;-58
2021/01/29 02:48:19;;;;;;;0.52;0.20;;;;;;;25.95;36.95;96815.91;4991065;28;20685;-57
2021/01/29 02:50:53;;;;;;;1.10;0.70;;;;;;;25.96;36.60;96814.88;4990207;28;20692;-59
2021/01/29 02:53:29;;;;;;;0.63;0.47;;;;;;;25.92;36.95;96800.28;4991304;28;20235;-57
2021/01/29 02:56:07;;;;;;;0.93;0.40;;;;;;;25.87;37.57;96789.41;4991517;28;20197;-52
2021/01/29 02:58:43;;;;;;;0.30;0.30;;;;;;;25.92;37.29;96786.88;4991455;28;20639;-56
2021/01/29 03:01:18;;;;;;;0.38;0.32;;;;;;;25.82;37.50;96785.53;4991547;28;20201;-58
2021/01/29 03:03:50;;;;;;;0.50;0.30;;;;;;;25.89;37.37;96782.78;4991673;28;20231;-57
2021/01/29 03:06:22;;;;;;;0.73;0.40;;;;;;;25.84;36.90;96783.44;4991573;28;20209;-57
2021/01/29 03:08:58;;;;;;;2.03;0.43;;;;;;;25.87;36.98;96779.53;4990298;28;20560;-57
2021/01/29 03:11:32;;;;;;;1.77;0.30;;;;;;;25.85;37.27;96776.25;4993513;28;20204;-58
2021/01/29 03:14:06;;;;;;;0.45;0.38;;;;;;;25.84;36.83;96777.28;4990879;28;20213;-53
2021/01/29 03:16:37;;;;;;;0.75;0.38;;;;;;;25.87;36.52;96778.72;4990921;28;20205;-56
2021/01/29 03:19:10;;;;;;;0.38;0.30;;;;;;;25.85;37.09;96776.25;4991580;28;20209;-55
2021/01/29 03:21:44;;;;;;;0.77;0.30;;;;;;;25.91;37.11;96764.63;4990797;28;20228;-57
2021/01/29 03:24:16;;;;;;;0.47;0.30;;;;;;;25.89;36.39;96772.06;4991486;28;20231;-56
2021/01/29 03:26:51;;;;;;;1.17;0.38;;;;;;;25.84;37.01;96771.94;4989560;28;20216;-56
2021/01/29 03:29:20;;;;;;;0.40;0.30;;;;;;;25.85;36.47;96763.69;4991534;28;20568;-57
2021/01/29 03:31:50;;;;;;;0.47;0.40;;;;;;;25.88;36.41;96757.06;4990790;28;20719;-55
2021/01/29 03:34:24;;;;;;;0.52;0.30;;;;;;;25.85;36.59;96750.28;4991354;28;20213;-56
2021/01/29 03:36:59;;;;;;;1.02;0.43;;;;;;;25.82;36.26;96744.56;4991583;28;20284;-55
2021/01/29 03:39:31;;;;;;;0.50;0.30;;;;;;;25.85;36.29;96741.44;4991640;28;20209;-55
2021/01/29 03:42:05;;;;;;;0.57;0.30;;;;;;;25.77;36.95;96741.75;4990845;28;20241;-55
2021/01/29 03:44:41;;;;;;;0.30;0.30;;;;;;;25.74;37.35;96731.47;4990300;28;20202;-58
2021/01/29 03:47:13;;;;;;;1.73;0.30;;;;;;;25.75;36.68;96728.59;4991751;28;20251;-57
2021/01/29 03:49:46;;;;;;;0.30;0.30;;;;;;;25.72;37.40;96723.69;4994708;28;20229;-57
2021/01/29 03:52:21;;;;;;;0.20;0.20;;;;;;;25.71;36.37;96719.34;4994728;28;20331;-55
2021/01/29 03:54:57;;;;;;;0.28;0.28;;;;;;;25.69;36.53;96715.28;4994716;28;20301;-54
2021/01/29 03:57:31;;;;;;;0.20;0.20;;;;;;;25.64;36.52;96710.59;4994657;28;20217;-57
2021/01/29 04:00:09;;;;;;;0.68;0.20;;;;;;;25.67;37.24;96710.16;4994291;28;20283;-57
2021/01/29 04:02:42;;;;;;;0.20;0.20;;;;;;;25.66;36.85;96697.78;4993496;28;20221;-53
2021/01/29 04:05:17;;;;;;;0.35;0.35;;;;;;;25.64;36.74;96684.63;4994748;28;20660;-56
2021/01/29 04:07:49;;;;;;;0.25;0.20;;;;;;;25.67;36.39;96678.03;4994556;28;20239;-56
2021/01/29 04:10:18;;;;;;;0.40;0.30;;;;;;;25.70;36.73;96687.44;4992691;28;20225;-56
2021/01/29 04:12:51;;;;;;;0.30;0.30;;;;;;;25.72;36.34;96690.75;4993090;28;20278;-56
2021/01/29 04:15:23;;;;;;;0.40;0.40;;;;;;;25.70;37.08;96680.25;4994026;28;20205;-57
2021/01/29 04:17:54;;;;;;;0.20;0.20;;;;;;;25.78;36.35;96676.44;4994823;28;20215;-57
2021/01/29 04:20:26;;;;;;;0.32;0.30;;;;;;;25.75;36.93;96664.34;4994439;28;20676;-57
2021/01/29 04:22:56;;;;;;;0.20;0.20;;;;;;;25.77;36.77;96643.53;4993990;28;20320;-53
2021/01/29 04:25:26;;;;;;;0.30;0.30;;;;;;;25.88;36.90;96635.75;4992895;28;20201;-55
2021/01/29 04:27:57;;;;;;;0.20;0.20;;;;;;;25.79;36.03;96633.41;4992590;28;20233;-57
2021/01/29 04:30:28;;;;;;;0.28;0.28;;;;;;;25.80;36.40;96626.19;4993153;28;20225;-58
2021/01/29 04:33:00;;;;;;;0.32;0.32;;;;;;;25.83;36.74;96617.69;4993824;28;20558;-57
2021/01/29 04:35:29;;;;;;;0.85;0.43;;;;;;;25.83;36.87;96610.50;4994248;28;20608;-58
2021/01/29 04:38:05;;;;;;;0.85;0.52;;;;;;;25.89;36.77;96610.63;4993727;28;20205;-56
2021/01/29 04:40:37;;;;;;;0.30;0.30;;;;;;;25.70;37.35;96605.31;4993710;28;20201;-56
2021/01/29 04:43:38;;;;;;;0.40;0.40;;;;;;;25.74;36.29;96593.09;4994314;28;20230;-58
2021/01/29 04:46:24;;;;;;;0.77;0.40;;;;;;;25.74;36.77;96593.09;4993425;28;20209;-58
2021/01/29 04:48:59;;;;;;;0.73;0.40;;;;;;;25.88;36.53;96582.22;4993783;28;20640;-57
2021/01/29 04:51:56;;;;;;;0.40;0.30;;;;;;;25.81;36.33;96567.09;4993636;28;20244;-58
2021/01/29 04:54:43;;;;;;;0.22;0.22;;;;;;;25.93;36.83;96560.94;4969886;28;20209;-58
2021/01/29 04:57:51;;;;;;;0.30;0.20;;;;;;;25.97;35.98;96551.44;4993206;28;20679;-57
2021/01/29 05:01:07;;;;;;;0.73;0.30;;;;;;;25.98;36.23;96551.22;4991975;28;20201;-59
2021/01/29 05:03:51;;;;;;;0.20;0.20;;;;;;;25.97;36.15;96546.09;4993841;28;20245;-58
2021/01/29 05:06:29;;;;;;;0.22;0.22;;;;;;;26.08;36.48;96539.94;4993234;28;20752;-58
2021/01/29 05:09:22;;;;;;;0.20;0.20;;;;;;;26.14;36.13;96527.47;4993092;28;20217;-58
2021/01/29 05:12:20;;;;;;;0.82;0.20;;;;;;;26.16;36.36;96526.22;4993707;28;20225;-59
2021/01/29 05:15:23;;;;;;;0.35;0.25;;;;;;;26.18;35.65;96528.63;4992340;28;20218;-58
2021/01/29 05:18:08;;;;;;;1.40;0.40;;;;;;;26.29;35.73;96532.38;4992285;28;20588;-58
2021/01/29 05:20:56;;;;;;;3.30;0.40;;;;;;;26.39;35.50;96522.72;4993673;28;20731;-58
2021/01/29 05:23:46;;;;;;;13.43;1.35;;;;;;;26.42;35.82;96526.81;4993031;28;20237;-58
2021/01/29 05:26:34;;;;;;;23.60;1.95;;;;;;;26.48;36.87;96523.19;4994029;28;20241;-61
2021/01/29 05:29:15;;;;;;;21.33;2.40;;;;;;;26.57;37.29;96516.44;4993817;28;20267;-61
2021/01/29 05:32:21;;;;;;;18.92;2.80;;;;;;;26.65;37.43;96501.09;4992727;28;20217;-58
2021/01/29 05:35:07;;;;;;;15.80;1.95;;;;;;;26.61;36.16;96495.31;4971758;28;20205;-59
2021/01/29 05:38:04;;;;;;;7.00;1.58;;;;;;;26.70;36.04;96493.16;4992101;28;20212;-61
2021/01/29 05:40:59;;;;;;;5.97;1.20;;;;;;;26.69;36.51;96478.09;4991930;28;20202;-62
2021/01/29 05:43:38;;;;;;;12.95;1.35;;;;;;;26.78;36.11;96482.06;4992153;28;20324;-62
2021/01/29 05:46:14;;;;;;;8.77;1.40;;;;;;;26.76;35.81;96460.84;4991823;28;20205;-57
2021/01/29 05:48:59;;;;;;;10.85;1.15;;;;;;;26.64;35.56;96457.38;4992160;28;20595;-58
2021/01/29 05:51:52;;;;;;;14.65;1.50;;;;;;;26.72;35.75;96450.84;4991416;28;20233;-56
2021/01/29 05:54:35;;;;;;;9.55;1.30;;;;;;;26.56;36.39;96434.41;4992336;28;20257;-55
2021/01/29 05:57:54;;;;;;;11.82;1.58;;;;;;;26.65;36.63;96436.75;4992478;28;20210;-58
2021/01/29 06:00:48;;;;;;;9.60;1.30;;;;;;;26.48;36.79;96421.38;4991403;28;20205;-57
2021/01/29 06:03:34;;;;;;;12.18;1.55;;;;;;;26.51;36.45;96439.66;4991879;28;20340;-58
2021/01/29 06:06:30;;;;;;;12.95;1.80;;;;;;;26.65;36.21;96458.22;4992139;28;20232;-58
2021/01/29 06:09:17;;;;;;;9.65;1.60;;;;;;;26.53;37.41;96455.47;4990711;28;20214;-58
2021/01/29 06:12:02;;;;;;;5.40;1.20;;;;;;;26.56;36.97;96471.94;4992304;28;20331;-58
2021/01/29 06:14:55;;;;;;;11.95;1.05;;;;;;;26.48;37.30;96480.31;4991173;28;20219;-58
2021/01/29 06:18:03;;;;;;;5.80;1.27;;;;;;;26.46;37.10;96487.75;4990773;28;20215;-57
2021/01/29 06:20:51;;;;;;;5.80;1.02;;;;;;;26.43;37.43;96512.38;4992053;28;20197;-58
2021/01/29 06:23:34;;;;;;;4.28;0.85;;;;;;;26.39;36.87;96524.59;4992006;28;20312;-58
2021/01/29 06:26:29;;;;;;;6.18;0.75;;;;;;;26.34;36.83;96514.56;4991899;28;20205;-57
2021/01/29 06:29:24;;;;;;;4.97;1.05;;;;;;;26.36;36.82;96538.44;4972688;28;20677;-56
2021/01/29 06:32:24;;;;;;;6.53;1.58;;;;;;;26.25;37.59;96531.22;4991448;28;20348;-56
2021/01/29 06:35:10;;;;;;;4.38;0.68;;;;;;;26.05;37.29;96537.72;4990177;28;20202;-56
2021/01/29 06:37:50;;;;;;;4.28;0.70;;;;;;;26.18;37.79;96534.84;4991595;28;20205;-58
2021/01/29 06:40:25;;;;;;;2.10;0.55;;;;;;;26.13;36.80;96539.22;4991635;28;20267;-54
2021/01/29 06:43:26;;;;;;;6.32;0.93;;;;;;;26.14;37.36;96530.97;4992085;28;20235;-57
2021/01/29 06:46:20;;;;;;;4.13;0.60;;;;;;;26.15;37.54;96519.22;4991442;28;20209;-55
2021/01/29 06:49:23;;;;;;;10.05;0.98;;;;;;;26.10;36.97;96531.69;4985480;28;20213;-58
2021/01/29 06:52:22;;;;;;;15.40;1.05;;;;;;;26.00;37.85;96533.06;4991416;28;20221;-63
2021/01/29 06:55:20;;;;;;;8.95;1.02;;;;;;;25.95;37.15;96535.59;4991807;28;20197;-63
2021/01/29 06:58:35;;;;;;;11.15;0.70;;;;;;;25.85;38.00;96544.16;4990203;28;20299;-67
2021/01/29 07:01:41;;;;;;;9.05;1.17;;;;;;;25.88;38.60;96539.38;4991579;28;20209;-67
2021/01/29 07:04:38;;;;;;;6.85;1.00;;;;;;;25.84;38.46;96529.13;4991744;28;20288;-67
2021/01/29 07:07:12;;;;;;;6.50;0.73;;;;;;;25.96;38.04;96531.06;4991848;28;20345;-69
2021/01/29 07:09:58;;;;;;;2.00;0.50;;;;;;;26.01;38.45;96539.22;4992114;28;20753;-68
2021/01/29 07:12:36;;;;;;;6.93;0.73;;;;;;;26.01;38.72;96555.28;4992260;28;20363;-68
2021/01/29 07:15:37;;;;;;;6.72;1.00;;;;;;;26.09;38.58;96551.47;4990907;28;20245;-68
2021/01/29 07:18:47;;;;;;;5.10;0.82;;;;;;;26.17;37.93;96565.31;4989190;28;20292;-67
2021/01/29 07:21:32;;;;;;;2.28;0.65;;;;;;;26.22;37.62;96568.13;4980696;28;20649;-68
2021/01/29 07:24:11;;;;;;;5.93;0.80;;;;;;;26.26;37.72;96578.38;4995722;28;20248;-67
2021/01/29 07:26:51;;;;;;;4.18;0.95;;;;;;;26.30;37.80;96579.56;4995658;28;20209;-67
2021/01/29 07:29:33;;;;;;;1.58;0.60;;;;;;;26.34;37.63;96592.25;4995081;28;20304;-67
2021/01/29 07:32:07;;;;;;;2.90;0.95;;;;;;;26.40;38.44;96585.19;4994250;28;20757;-68
2021/01/29 07:34:48;;;;;;;8.13;0.57;;;;;;;26.37;38.25;96597.16;4995440;28;20241;-69
2021/01/29 07:37:49;;;;;;;1.95;0.65;;;;;;;26.39;38.44;96583.53;4995049;28;20641;-66
2021/01/29 07:40:47;;;;;;;3.13;0.60;;;;;;;26.36;37.71;96589.34;4994673;28;20575;-67
2021/01/29 07:43:38;;;;;;;4.05;0.60;;;;;;;26.36;38.67;96602.75;4996088;28;20320;-66
2021/01/29 07:46:17;;;;;;;4.18;0.80;;;;;;;26.37;38.66;96581.06;4994850;28;20292;-66
2021/01/29 07:48:54;;;;;;;6.95;0.80;;;;;;;26.45;37.96;96584.50;4995323;28;20621;-69
2021/01/29 07:51:30;;;;;;;2.15;0.70;;;;;;;26.46;37.90;96602.97;4994806;28;20583;-68
2021/01/29 07:54:24;;;;;;;6.95;1.00;;;;;;;26.40;37.37;96585.19;4995216;28;20236;-68
2021/01/29 07:57:12;;;;;;;4.07;0.70;;;;;;;26.37;37.98;96591.00;4994991;28;20249;-67
2021/01/29 08:00:02;;;;;;;2.65;0.80;;;;;;;26.36;37.79;96594.72;4995370;28;20737;-66
2021/01/29 08:02:48;;;;;;;4.97;0.65;;;;;;;26.41;38.33;96589.47;4994754;28;20315;-65
2021/01/29 08:05:23;;;;;;;2.72;0.60;;;;;;;26.30;38.11;96595.66;4995196;28;20340;-66
2021/01/29 08:07:53;;;;;;;2.92;0.70;;;;;;;26.37;39.08;96607.88;4994427;28;20291;-68
2021/01/29 08:10:31;;;;;;;4.68;0.75;;;;;;;26.36;38.70;96595.53;4993903;28;20317;-68
2021/01/29 08:13:15;;;;;;;2.95;0.50;;;;;;;26.83;38.08;96600.16;4994270;28;20312;-69
2021/01/29 08:15:51;;;;;;;4.55;0.93;;;;;;;26.59;39.02;96594.72;4994941;28;20288;-68
2021/01/29 08:18:45;;;;;;;2.08;0.70;;;;;;;26.55;39.62;96596.25;4994032;28;20333;-69
2021/01/29 08:21:37;;;;;;;5.18;0.55;;;;;;;26.54;39.37;96602.66;4994036;28;20205;-68
2021/01/29 08:24:14;;;;;;;2.45;0.90;;;;;;;26.74;37.95;96604.22;4994875;28;20237;-66
2021/01/29 08:26:50;;;;;;;4.53;0.95;;;;;;;26.47;38.80;96601.94;4995117;28;20233;-69
2021/01/29 08:29:35;;;;;;;1.27;0.40;;;;;;;26.43;38.23;96595.44;4994651;28;20276;-68
2021/01/29 08:32:45;;;;;;;2.95;0.50;;;;;;;26.70;37.88;96600.38;4994130;28;20308;-68
2021/01/29 08:35:26;;;;;;;3.63;0.47;;;;;;;26.46;38.29;96588.78;4952064;29;20211;-68
2021/01/29 08:38:01;;;;;;;3.80;0.70;;;;;;;26.39;39.02;96588.88;4952986;29;20819;-66
2021/01/29 08:40:32;;;;;;;3.78;0.60;;;;;;;26.38;38.85;96606.03;4978582;28;20296;-68
2021/01/29 08:43:17;;;;;;;2.35;0.50;;;;;;;26.31;39.18;96595.41;4994540;28;20257;-67
2021/01/29 08:46:00;;;;;;;1.15;0.50;;;;;;;26.38;39.30;96587.28;4993975;28;20205;-65
2021/01/29 08:48:43;;;;;;;4.97;0.80;;;;;;;26.35;38.69;96603.81;4994461;28;20248;-68
2021/01/29 08:51:23;;;;;;;5.43;0.80;;;;;;;26.39;39.02;96595.06;4993525;28;20275;-68
2021/01/29 08:54:20;;;;;;;1.92;0.50;;;;;;;26.33;38.66;96616.59;4994078;28;20216;-68
2021/01/29 08:56:57;;;;;;;1.50;0.50;;;;;;;26.24;38.97;96624.16;4992928;28;20205;-68
2021/01/29 08:59:29;;;;;;;3.40;0.80;;;;;;;26.26;38.39;96610.53;4993922;28;20292;-65
2021/01/29 09:02:01;;;;;;;3.08;0.50;;;;;;;26.26;38.88;96630.09;4994228;28;20336;-67
2021/01/29 09:04:32;;;;;;;1.83;0.40;;;;;;;26.24;38.14;96636.75;4993806;28;20205;-67
2021/01/29 09:07:03;;;;;;;3.33;0.68;;;;;;;26.26;38.19;96637.31;4993773;28;20288;-67
2021/01/29 09:09:32;;;;;;;0.82;0.30;;;;;;;26.32;38.60;96636.41;4993590;28;20210;-66
2021/01/29 09:12:01;;;;;;;7.97;0.68;;;;;;;26.30;38.78;96641.19;4992821;28;20229;-67
2021/01/29 09:14:35;;;;;;;1.08;0.30;;;;;;;26.31;39.13;96650.84;4992673;28;20233;-67
2021/01/29 09:17:06;;;;;;;9.20;1.10;;;;;;;26.13;38.74;96651.72;4993592;28;20311;-69
2021/01/29 09:19:36;;;;;;;4.63;0.68;;;;;;;26.10;39.58;96655.69;4994618;28;20292;-70
2021/01/29 09:22:15;;;;;;;0.52;0.30;;;;;;;26.13;38.17;96649.88;4993185;28;20249;-68
2021/01/29 09:24:47;;;;;;;1.40;0.60;;;;;;;26.16;39.10;96653.94;4993437;28;20209;-70
2021/01/29 09:27:44;;;;;;;6.88;0.70;;;;;;;26.16;39.25;96657.47;4992866;28;20300;-68
2021/01/29 09:30:18;;;;;;;1.67;0.47;;;;;;;26.32;38.48;96673.91;4989255;28;20230;-70
2021/01/29 09:32:57;;;;;;;1.13;0.50;;;;;;;26.43;39.41;96675.81;4993357;28;20349;-70
2021/01/29 09:35:47;;;;;;;6.40;0.47;;;;;;;26.42;38.89;96678.72;4992792;28;20618;-68
2021/01/29 09:38:18;;;;;;;3.22;0.50;;;;;;;26.50;38.27;96683.75;4992399;28;20253;-68
2021/01/29 09:40:53;;;;;;;2.15;0.40;;;;;;;26.40;38.37;96700.38;4992693;28;20292;-69
2021/01/29 09:43:30;;;;;;;2.33;0.60;;;;;;;26.36;38.11;96708.06;4993043;28;20260;-70
2021/01/29 09:45:58;;;;;;;1.20;0.40;;;;;;;26.38;38.46;96699.81;4993009;28;20201;-72
2021/01/29 09:48:27;;;;;;;4.30;0.68;;;;;;;26.45;38.86;96705.88;4992664;28;20201;-68
2021/01/29 09:51:16;;;;;;;6.80;0.60;;;;;;;26.64;38.66;96716.56;4992789;28;20283;-69
2021/01/29 09:53:54;;;;;;;4.32;0.40;;;;;;;26.53;38.62;96713.59;4992590;28;20315;-69
2021/01/29 09:56:25;;;;;;;2.65;0.60;;;;;;;27.05;37.01;96720.25;4992691;28;20201;-69
2021/01/29 09:59:27;;;;;;;1.73;0.50;;;;;;;26.72;38.16;96721.59;4992198;28;20241;-68
2021/01/29 10:02:01;;;;;;;0.80;0.50;;;;;;;26.55;37.54;96732.94;4983450;28;20307;-69
2021/01/29 10:04:34;;;;;;;4.68;0.80;;;;;;;26.59;38.00;96731.41;4992763;28;20287;-70
2021/01/29 10:07:05;;;;;;;1.15;0.50;;;;;;;26.52;38.31;96725.34;4992747;28;20288;-68
2021/01/29 10:09:37;;;;;;;2.45;0.50;;;;;;;26.46;37.74;96747.69;4992945;28;20292;-68
2021/01/29 10:12:12;;;;;;;2.00;0.50;;;;;;;26.44;36.99;96735.56;4992323;28;20316;-68
2021/01/29 10:14:51;;;;;;;3.70;0.55;;;;;;;26.35;38.27;96737.75;4991786;28;20205;-66
2021/01/29 10:17:25;;;;;;;1.65;0.50;;;;;;;26.31;37.21;96731.22;4991035;28;20685;-68
2021/01/29 10:19:55;;;;;;;4.68;0.60;;;;;;;26.37;38.61;96751.75;4992141;28;20288;-70
2021/01/29 10:22:38;;;;;;;5.28;0.60;;;;;;;26.31;37.51;96753.47;4992255;28;20268;-69
2021/01/29 10:25:18;;;;;;;1.27;0.40;;;;;;;26.33;37.44;96734.47;4991146;28;20209;-70
2021/01/29 10:27:52;;;;;;;2.58;0.82;;;;;;;26.32;38.00;96728.31;4991755;28;20614;-68
2021/01/29 10:30:28;;;;;;;2.78;0.60;;;;;;;26.30;37.58;96743.00;4991872;28;20252;-68
2021/01/29 10:33:03;;;;;;;0.60;0.30;;;;;;;26.31;37.50;96731.22;4991685;28;20232;-67
2021/01/29 10:35:36;;;;;;;2.22;0.43;;;;;;;26.31;37.40;96737.41;4991194;28;20239;-66
2021/01/29 10:38:09;;;;;;;1.05;0.47;;;;;;;26.26;37.40;96736.44;4991709;28;20681;-66
2021/01/29 10:40:38;;;;;;;1.35;0.50;;;;;;;26.25;37.29;96732.94;4991919;28;20284;-71
2021/01/29 10:43:17;;;;;;;2.35;0.50;;;;;;;26.16;37.74;96740.50;4990713;28;20253;-67
2021/01/29 10:45:57;;;;;;;2.03;0.50;;;;;;;26.11;37.71;96737.63;4992212;28;20201;-70
2021/01/29 10:48:48;;;;;;;5.97;0.45;;;;;;;26.04;37.86;96736.91;4991796;28;20245;-68
2021/01/29 10:51:31;;;;;;;1.98;0.32;;;;;;;26.08;37.36;96732.75;4991911;28;20271;-67
2021/01/29 10:53:58;;;;;;;3.55;0.57;;;;;;;26.07;38.19;96732.97;4992103;28;20287;-68
2021/01/29 10:56:27;;;;;;;1.45;0.57;;;;;;;25.97;38.26;96747.72;4990841;28;20268;-69
2021/01/29 10:58:58;;;;;;;1.60;0.40;;;;;;;25.95;38.34;96730.22;4994965;28;20569;-68
2021/01/29 11:01:33;;;;;;;4.20;0.65;;;;;;;25.97;38.53;96757.59;4994514;28;20296;-69
2021/01/29 11:04:05;;;;;;;3.13;0.60;;;;;;;25.95;37.78;96755.16;4994718;28;20279;-66
2021/01/29 11:06:41;;;;;;;5.05;0.50;;;;;;;25.95;37.08;96733.72;4993515;28;20525;-67
2021/01/29 11:09:17;;;;;;;2.25;0.60;;;;;;;25.85;37.32;96728.88;4995866;28;20636;-66
2021/01/29 11:11:47;;;;;;;2.20;0.40;;;;;;;25.90;37.46;96746.13;4994776;28;20371;-68
2021/01/29 11:14:25;;;;;;;1.40;0.50;;;;;;;25.89;38.16;96739.94;4995797;28;20251;-70
2021/01/29 11:17:02;;;;;;;2.08;0.50;;;;;;;25.90;38.22;96751.50;4992982;28;20655;-69
2021/01/29 11:19:35;;;;;;;1.98;0.57;;;;;;;25.83;37.95;96739.00;4995583;28;20243;-69
2021/01/29 11:22:23;;;;;;;1.98;0.50;;;;;;;25.85;37.52;96755.66;4995249;28;20229;-69
2021/01/29 11:25:22;;;;;;;0.60;0.45;;;;;;;25.82;37.13;96755.28;4994318;28;20692;-67
2021/01/29 11:27:58;;;;;;;1.08;0.52;;;;;;;25.74;37.95;96759.06;4995238;28;20297;-69
2021/01/29 11:30:30;;;;;;;1.58;0.40;;;;;;;25.65;37.96;96766.56;4995438;28;20225;-66
2021/01/29 11:33:00;;;;;;;2.03;0.68;;;;;;;25.66;38.83;96759.34;4996282;28;20291;-68
2021/01/29 11:35:46;;;;;;;1.58;0.50;;;;;;;25.62;37.97;96772.38;4995326;28;20662;-66
2021/01/29 11:38:22;;;;;;;2.15;0.50;;;;;;;25.65;38.56;96766.56;4995136;28;20249;-67
2021/01/29 11:41:04;;;;;;;1.98;0.50;;;;;;;25.58;38.42;96775.69;4994195;28;20255;-67
2021/01/29 11:43:38;;;;;;;1.13;0.40;;;;;;;25.60;38.47;96757.59;4994142;28;20312;-68
2021/01/29 11:46:15;;;;;;;0.73;0.43;;;;;;;25.60;38.58;96754.91;4994742;28;20284;-67
2021/01/29 11:48:50;;;;;;;1.83;0.50;;;;;;;25.62;38.21;96750.94;4993806;28;20252;-67
2021/01/29 11:51:25;;;;;;;1.00;0.40;;;;;;;25.70;38.59;96762.41;4993087;28;20559;-65
2021/01/29 11:54:01;;;;;;;5.93;0.75;;;;;;;25.71;35.36;96748.78;4994082;28;20212;-66
2021/01/29 11:56:32;;;;;;;5.38;0.90;;;;;;;25.70;34.34;96757.88;4994474;28;20213;-66
2021/01/29 11:59:02;;;;;;;7.22;1.10;;;;;;;25.79;36.40;96755.72;4993941;28;20351;-66
2021/01/29 12:01:34;;;;;;;2.75;0.65;;;;;;;25.80;37.63;96752.81;4994665;28;20292;-66
2021/01/29 12:04:08;;;;;;;2.72;0.77;;;;;;;25.82;37.99;96734.66;4995514;28;20272;-65
2021/01/29 12:06:37;;;;;;;8.80;1.10;;;;;;;25.73;38.29;96746.72;4993423;28;20241;-66
2021/01/29 12:09:11;;;;;;;7.07;0.70;;;;;;;25.84;37.60;96737.94;4994324;28;20261;-66
2021/01/29 12:11:45;;;;;;;5.32;0.88;;;;;;;25.84;38.41;96735.25;4994070;28;20226;-67
2021/01/29 12:14:18;;;;;;;6.25;1.30;;;;;;;25.81;38.48;96727.69;4994661;28;20295;-67
2021/01/29 12:16:46;;;;;;;5.80;1.00;;;;;;;25.82;38.91;96744.56;4994914;28;20209;-66
2021/01/29 12:19:25;;;;;;;9.25;1.73;;;;;;;25.82;39.02;96737.34;4994687;28;20216;-66
2021/01/29 12:21:57;;;;;;;7.35;1.10;;;;;;;25.74;38.55;96731.47;4993858;28;20311;-66
2021/01/29 12:24:37;;;;;;;6.90;1.10;;;;;;;25.79;37.94;96734.31;4994044;28;20244;-67
2021/01/29 12:27:08;;;;;;;3.22;0.68;;;;;;;25.66;38.15;96740.63;4994394;28;20258;-67